Terminal Aerodrome Forecast
Issued by NWS Sterling, VA

Current Version | Previous Version | Graphics & Text | Print | Product List | Glossary On
Versions: 1 2 3 4 5 6 7 8 9 10 11 12 13 14 15 16 17 18 19 20 21 22 23 24
000
FTUS41 KLWX 231100
TAFDCA
TAF
KDCA 231133Z 2312/2412 20006KT P6SM SCT090
     FM231700 19006KT P6SM BKN110
     FM240100 14006KT 5SM -RA OVC015
     FM240200 13007KT 5SM -RA OVC008
     FM240500 15013KT 2SM RA OVC008 WS020/16045KT
     FM240600 15015KT 1SM RA OVC008 WS020/16050KT
     FM240900 18012KT 1SM RA OVC008
     FM241000 18011KT 2SM -RA OVC008=

USA.gov is the U.S. government's official web portal to all federal, state and local government web resources and services.